Rothes, United Kingdom
Current Conditions -  °F | °C
As of 3:50 AM on Monday 22 Dec 2014 (Local Time) from EGQS Reporting Station
Clear Clear  
Wind Chill: 38°   Ceiling: Unl
Heat Index: 45°   Visibility: 6mi
Dew Point: 36°   Wind: 14mph
Humidity: 71%   Direction: 250°WSW
Pressure: 29.41"   Gusts: NA
Location:  57.53°N, 3.21°W
Report Text: EGQS 220350Z 25012KT CAVOK 07/02 Q0996 BLU
Loading
Personal Weather Stations






























Interactive Weather Map New forecast layout! Learn more

10-Day Weather Forecast

Advertisements
Track Severe Weather on mobile